sensor_id;sensor_type;location;lat;lon;timestamp;P1;durP1;ratioP1;P2;durP2;ratioP2
1404;SDS011;697;51.114;6.542;2023-05-13T00:00:44;12.53;;;11.33;;
1404;SDS011;697;51.114;6.542;2023-05-13T00:03:11;13.43;;;12.10;;
1404;SDS011;697;51.114;6.542;2023-05-13T00:05:37;11.30;;;10.27;;
1404;SDS011;697;51.114;6.542;2023-05-13T00:08:06;11.70;;;10.57;;
1404;SDS011;697;51.114;6.542;2023-05-13T00:10:32;12.37;;;10.70;;
1404;SDS011;697;51.114;6.542;2023-05-13T00:13:00;13.07;;;11.83;;
1404;SDS011;697;51.114;6.542;2023-05-13T00:15:26;12.80;;;11.50;;
1404;SDS011;697;51.114;6.542;2023-05-13T00:17:53;12.73;;;11.63;;
1404;SDS011;697;51.114;6.542;2023-05-13T00:20:21;15.53;;;13.93;;
1404;SDS011;697;51.114;6.542;2023-05-13T00:22:48;13.20;;;12.00;;
1404;SDS011;697;51.114;6.542;2023-05-13T00:25:16;13.63;;;12.50;;
1404;SDS011;697;51.114;6.542;2023-05-13T00:27:43;13.83;;;12.63;;
1404;SDS011;697;51.114;6.542;2023-05-13T00:30:10;12.93;;;11.67;;
1404;SDS011;697;51.114;6.542;2023-05-13T00:32:37;14.03;;;12.70;;
1404;SDS011;697;51.114;6.542;2023-05-13T00:35:04;14.03;;;12.70;;
1404;SDS011;697;51.114;6.542;2023-05-13T00:37:31;15.70;;;14.20;;
1404;SDS011;697;51.114;6.542;2023-05-13T00:39:58;16.93;;;15.37;;
1404;SDS011;697;51.114;6.542;2023-05-13T00:42:26;13.30;;;12.10;;
1404;SDS011;697;51.114;6.542;2023-05-13T00:44:52;14.70;;;13.20;;
1404;SDS011;697;51.114;6.542;2023-05-13T00:47:19;14.40;;;13.00;;
1404;SDS011;697;51.114;6.542;2023-05-13T00:49:47;14.73;;;13.23;;
1404;SDS011;697;51.114;6.542;2023-05-13T00:52:14;13.90;;;12.60;;
1404;SDS011;697;51.114;6.542;2023-05-13T00:54:41;13.83;;;12.40;;
1404;SDS011;697;51.114;6.542;2023-05-13T00:57:07;14.47;;;12.77;;
1404;SDS011;697;51.114;6.542;2023-05-13T00:59:35;13.10;;;11.90;;
1404;SDS011;697;51.114;6.542;2023-05-13T01:02:04;14.20;;;12.90;;
1404;SDS011;697;51.114;6.542;2023-05-13T01:04:42;14.20;;;13.00;;
1404;SDS011;697;51.114;6.542;2023-05-13T01:07:27;15.93;;;14.43;;
1404;SDS011;697;51.114;6.542;2023-05-13T01:10:07;15.60;;;14.10;;
1404;SDS011;697;51.114;6.542;2023-05-13T01:12:39;14.90;;;13.63;;
1404;SDS011;697;51.114;6.542;2023-05-13T01:15:10;25.93;;;13.77;;
1404;SDS011;697;51.114;6.542;2023-05-13T01:17:41;16.00;;;14.60;;
1404;SDS011;697;51.114;6.542;2023-05-13T01:20:12;15.40;;;14.00;;
1404;SDS011;697;51.114;6.542;2023-05-13T01:22:40;14.83;;;13.43;;
1404;SDS011;697;51.114;6.542;2023-05-13T01:25:07;14.60;;;13.17;;
1404;SDS011;697;51.114;6.542;2023-05-13T01:27:34;14.00;;;12.80;;
1404;SDS011;697;51.114;6.542;2023-05-13T01:30:01;14.80;;;13.40;;
1404;SDS011;697;51.114;6.542;2023-05-13T01:32:28;14.67;;;13.27;;
1404;SDS011;697;51.114;6.542;2023-05-13T01:34:55;14.40;;;12.97;;
1404;SDS011;697;51.114;6.542;2023-05-13T01:37:22;14.33;;;13.13;;
1404;SDS011;697;51.114;6.542;2023-05-13T01:39:50;15.53;;;14.20;;
1404;SDS011;697;51.114;6.542;2023-05-13T01:42:17;14.43;;;13.07;;
1404;SDS011;697;51.114;6.542;2023-05-13T01:44:44;14.77;;;13.47;;
1404;SDS011;697;51.114;6.542;2023-05-13T01:47:11;16.43;;;14.73;;
1404;SDS011;697;51.114;6.542;2023-05-13T01:49:37;16.30;;;13.40;;
1404;SDS011;697;51.114;6.542;2023-05-13T01:52:04;16.90;;;13.20;;
1404;SDS011;697;51.114;6.542;2023-05-13T01:54:31;15.67;;;13.83;;
1404;SDS011;697;51.114;6.542;2023-05-13T01:56:59;16.07;;;14.57;;
1404;SDS011;697;51.114;6.542;2023-05-13T01:59:26;14.80;;;13.40;;
1404;SDS011;697;51.114;6.542;2023-05-13T02:01:52;16.43;;;14.83;;
1404;SDS011;697;51.114;6.542;2023-05-13T02:04:19;15.40;;;13.93;;
1404;SDS011;697;51.114;6.542;2023-05-13T02:06:46;15.97;;;14.47;;
1404;SDS011;697;51.114;6.542;2023-05-13T02:09:13;14.80;;;13.50;;
1404;SDS011;697;51.114;6.542;2023-05-13T02:11:40;15.30;;;13.90;;
1404;SDS011;697;51.114;6.542;2023-05-13T02:14:08;15.93;;;14.00;;
1404;SDS011;697;51.114;6.542;2023-05-13T02:16:35;16.70;;;15.20;;
1404;SDS011;697;51.114;6.542;2023-05-13T02:19:01;14.57;;;13.37;;
1404;SDS011;697;51.114;6.542;2023-05-13T02:21:28;17.23;;;13.40;;
1404;SDS011;697;51.114;6.542;2023-05-13T02:23:56;14.87;;;13.50;;
1404;SDS011;697;51.114;6.542;2023-05-13T02:26:22;16.30;;;14.87;;
1404;SDS011;697;51.114;6.542;2023-05-13T02:28:49;15.30;;;12.87;;
1404;SDS011;697;51.114;6.542;2023-05-13T02:31:17;15.87;;;14.00;;
1404;SDS011;697;51.114;6.542;2023-05-13T02:33:44;15.73;;;14.33;;
1404;SDS011;697;51.114;6.542;2023-05-13T02:36:10;15.67;;;13.10;;
1404;SDS011;697;51.114;6.542;2023-05-13T02:38:37;15.87;;;14.47;;
1404;SDS011;697;51.114;6.542;2023-05-13T02:41:04;16.03;;;14.53;;
1404;SDS011;697;51.114;6.542;2023-05-13T02:43:31;16.37;;;14.93;;
1404;SDS011;697;51.114;6.542;2023-05-13T02:45:58;16.50;;;15.00;;
1404;SDS011;697;51.114;6.542;2023-05-13T02:48:26;16.20;;;14.80;;
1404;SDS011;697;51.114;6.542;2023-05-13T02:50:52;15.97;;;14.57;;
1404;SDS011;697;51.114;6.542;2023-05-13T02:53:19;16.20;;;14.80;;
1404;SDS011;697;51.114;6.542;2023-05-13T02:55:46;16.07;;;14.53;;
1404;SDS011;697;51.114;6.542;2023-05-13T02:58:13;16.07;;;14.60;;
1404;SDS011;697;51.114;6.542;2023-05-13T03:00:39;16.37;;;14.87;;
1404;SDS011;697;51.114;6.542;2023-05-13T03:03:06;15.43;;;14.03;;
1404;SDS011;697;51.114;6.542;2023-05-13T03:05:34;15.90;;;14.50;;
1404;SDS011;697;51.114;6.542;2023-05-13T03:08:01;16.27;;;14.67;;
1404;SDS011;697;51.114;6.542;2023-05-13T03:10:28;16.13;;;14.70;;
1404;SDS011;697;51.114;6.542;2023-05-13T03:12:55;15.87;;;14.37;;
1404;SDS011;697;51.114;6.542;2023-05-13T03:15:22;15.27;;;13.93;;
1404;SDS011;697;51.114;6.542;2023-05-13T03:17:48;15.80;;;14.40;;
1404;SDS011;697;51.114;6.542;2023-05-13T03:20:15;17.17;;;15.47;;
1404;SDS011;697;51.114;6.542;2023-05-13T03:22:44;15.33;;;13.93;;
1404;SDS011;697;51.114;6.542;2023-05-13T03:25:10;16.40;;;14.83;;
1404;SDS011;697;51.114;6.542;2023-05-13T03:27:37;15.60;;;14.20;;
1404;SDS011;697;51.114;6.542;2023-05-13T03:30:04;18.53;;;16.80;;
1404;SDS011;697;51.114;6.542;2023-05-13T03:32:32;16.13;;;14.53;;
1404;SDS011;697;51.114;6.542;2023-05-13T03:34:59;14.57;;;13.37;;
1404;SDS011;697;51.114;6.542;2023-05-13T03:37:26;15.67;;;14.37;;
1404;SDS011;697;51.114;6.542;2023-05-13T03:39:54;18.57;;;16.77;;
1404;SDS011;697;51.114;6.542;2023-05-13T03:42:20;16.40;;;14.90;;
1404;SDS011;697;51.114;6.542;2023-05-13T03:44:48;15.93;;;14.57;;
1404;SDS011;697;51.114;6.542;2023-05-13T03:47:15;23.57;;;15.50;;
1404;SDS011;697;51.114;6.542;2023-05-13T03:49:41;16.10;;;14.47;;
1404;SDS011;697;51.114;6.542;2023-05-13T03:52:08;15.20;;;13.97;;
1404;SDS011;697;51.114;6.542;2023-05-13T03:54:35;17.30;;;15.60;;
1404;SDS011;697;51.114;6.542;2023-05-13T03:57:03;16.30;;;14.90;;
1404;SDS011;697;51.114;6.542;2023-05-13T03:59:31;16.50;;;14.80;;
1404;SDS011;697;51.114;6.542;2023-05-13T04:01:58;16.70;;;15.30;;
1404;SDS011;697;51.114;6.542;2023-05-13T04:04:25;14.33;;;13.10;;
1404;SDS011;697;51.114;6.542;2023-05-13T04:06:51;16.53;;;15.03;;
1404;SDS011;697;51.114;6.542;2023-05-13T04:09:18;16.80;;;15.20;;
1404;SDS011;697;51.114;6.542;2023-05-13T04:11:45;16.00;;;14.60;;
1404;SDS011;697;51.114;6.542;2023-05-13T04:14:13;17.37;;;15.87;;
1404;SDS011;697;51.114;6.542;2023-05-13T04:16:39;18.13;;;16.23;;
1404;SDS011;697;51.114;6.542;2023-05-13T04:19:07;16.10;;;14.43;;
1404;SDS011;697;51.114;6.542;2023-05-13T04:21:34;15.43;;;14.10;;
1404;SDS011;697;51.114;6.542;2023-05-13T04:24:00;17.20;;;15.80;;
1404;SDS011;697;51.114;6.542;2023-05-13T04:26:27;16.77;;;15.20;;
1404;SDS011;697;51.114;6.542;2023-05-13T04:28:54;18.10;;;16.17;;
1404;SDS011;697;51.114;6.542;2023-05-13T04:31:22;18.77;;;17.07;;
1404;SDS011;697;51.114;6.542;2023-05-13T04:33:48;17.50;;;15.80;;
1404;SDS011;697;51.114;6.542;2023-05-13T04:36:15;16.73;;;15.23;;
1404;SDS011;697;51.114;6.542;2023-05-13T04:38:42;18.17;;;16.50;;
1404;SDS011;697;51.114;6.542;2023-05-13T04:41:08;17.30;;;15.73;;
1404;SDS011;697;51.114;6.542;2023-05-13T04:43:35;16.43;;;14.90;;
1404;SDS011;697;51.114;6.542;2023-05-13T04:46:02;17.97;;;16.50;;
1404;SDS011;697;51.114;6.542;2023-05-13T04:48:30;17.80;;;16.10;;
1404;SDS011;697;51.114;6.542;2023-05-13T04:50:57;17.23;;;15.50;;
1404;SDS011;697;51.114;6.542;2023-05-13T04:53:23;16.43;;;15.00;;
1404;SDS011;697;51.114;6.542;2023-05-13T04:55:50;17.83;;;16.13;;
1404;SDS011;697;51.114;6.542;2023-05-13T04:58:21;18.47;;;15.43;;
1404;SDS011;697;51.114;6.542;2023-05-13T05:00:48;17.57;;;15.77;;
1404;SDS011;697;51.114;6.542;2023-05-13T05:03:15;16.33;;;14.93;;
1404;SDS011;697;51.114;6.542;2023-05-13T05:05:43;17.60;;;16.03;;
1404;SDS011;697;51.114;6.542;2023-05-13T05:08:10;16.50;;;14.90;;
1404;SDS011;697;51.114;6.542;2023-05-13T05:10:36;16.20;;;14.40;;
1404;SDS011;697;51.114;6.542;2023-05-13T05:13:03;17.00;;;15.33;;
1404;SDS011;697;51.114;6.542;2023-05-13T05:15:30;15.80;;;14.27;;
1404;SDS011;697;51.114;6.542;2023-05-13T05:17:57;16.00;;;14.60;;
1404;SDS011;697;51.114;6.542;2023-05-13T05:20:23;15.57;;;14.07;;
1404;SDS011;697;51.114;6.542;2023-05-13T05:22:51;15.90;;;14.47;;
1404;SDS011;697;51.114;6.542;2023-05-13T05:25:18;15.00;;;13.70;;
1404;SDS011;697;51.114;6.542;2023-05-13T05:27:45;16.83;;;15.23;;
1404;SDS011;697;51.114;6.542;2023-05-13T05:30:12;16.47;;;15.07;;
1404;SDS011;697;51.114;6.542;2023-05-13T05:32:39;15.77;;;14.37;;
1404;SDS011;697;51.114;6.542;2023-05-13T05:35:06;15.40;;;14.13;;
1404;SDS011;697;51.114;6.542;2023-05-13T05:37:33;15.03;;;13.53;;
1404;SDS011;697;51.114;6.542;2023-05-13T05:40:02;16.97;;;14.40;;
1404;SDS011;697;51.114;6.542;2023-05-13T05:42:29;15.60;;;14.10;;
1404;SDS011;697;51.114;6.542;2023-05-13T05:44:55;15.43;;;13.93;;
1404;SDS011;697;51.114;6.542;2023-05-13T05:47:22;16.40;;;14.90;;
1404;SDS011;697;51.114;6.542;2023-05-13T05:49:49;15.27;;;13.97;;
1404;SDS011;697;51.114;6.542;2023-05-13T05:52:15;20.33;;;14.50;;
1404;SDS011;697;51.114;6.542;2023-05-13T05:54:42;15.10;;;13.70;;
1404;SDS011;697;51.114;6.542;2023-05-13T05:57:10;15.83;;;13.60;;
1404;SDS011;697;51.114;6.542;2023-05-13T05:59:37;16.23;;;14.77;;
1404;SDS011;697;51.114;6.542;2023-05-13T06:02:04;16.83;;;15.07;;
1404;SDS011;697;51.114;6.542;2023-05-13T06:04:31;19.53;;;15.33;;
1404;SDS011;697;51.114;6.542;2023-05-13T06:06:57;16.77;;;15.00;;
1404;SDS011;697;51.114;6.542;2023-05-13T06:09:24;16.07;;;14.57;;
1404;SDS011;697;51.114;6.542;2023-05-13T06:11:51;16.30;;;14.80;;
1404;SDS011;697;51.114;6.542;2023-05-13T06:14:19;16.90;;;15.00;;
1404;SDS011;697;51.114;6.542;2023-05-13T06:16:45;16.43;;;14.70;;
1404;SDS011;697;51.114;6.542;2023-05-13T06:19:12;17.50;;;15.80;;
1404;SDS011;697;51.114;6.542;2023-05-13T06:21:39;16.97;;;14.60;;
1404;SDS011;697;51.114;6.542;2023-05-13T06:24:07;16.87;;;15.07;;
1404;SDS011;697;51.114;6.542;2023-05-13T06:26:34;16.43;;;14.93;;
1404;SDS011;697;51.114;6.542;2023-05-13T06:29:01;14.13;;;12.87;;
1404;SDS011;697;51.114;6.542;2023-05-13T06:31:29;17.23;;;15.57;;
1404;SDS011;697;51.114;6.542;2023-05-13T06:33:55;16.00;;;14.20;;
1404;SDS011;697;51.114;6.542;2023-05-13T06:36:22;15.17;;;13.70;;
1404;SDS011;697;51.114;6.542;2023-05-13T06:38:49;14.27;;;12.97;;
1404;SDS011;697;51.114;6.542;2023-05-13T06:41:15;15.40;;;14.10;;
1404;SDS011;697;51.114;6.542;2023-05-13T06:43:42;15.70;;;14.20;;
1404;SDS011;697;51.114;6.542;2023-05-13T06:46:10;15.77;;;14.17;;
1404;SDS011;697;51.114;6.542;2023-05-13T06:48:38;14.80;;;13.30;;
1404;SDS011;697;51.114;6.542;2023-05-13T06:51:04;14.83;;;13.53;;
1404;SDS011;697;51.114;6.542;2023-05-13T06:53:31;15.20;;;13.73;;
1404;SDS011;697;51.114;6.542;2023-05-13T06:55:58;16.03;;;13.33;;
1404;SDS011;697;51.114;6.542;2023-05-13T06:58:24;16.10;;;13.83;;
1404;SDS011;697;51.114;6.542;2023-05-13T07:00:51;14.43;;;12.93;;
1404;SDS011;697;51.114;6.542;2023-05-13T07:03:18;13.70;;;12.50;;
1404;SDS011;697;51.114;6.542;2023-05-13T07:05:46;16.07;;;13.93;;
1404;SDS011;697;51.114;6.542;2023-05-13T07:08:13;13.40;;;12.30;;
1404;SDS011;697;51.114;6.542;2023-05-13T07:10:42;14.13;;;12.47;;
1404;SDS011;697;51.114;6.542;2023-05-13T07:13:09;14.10;;;12.40;;
1404;SDS011;697;51.114;6.542;2023-05-13T07:15:36;15.17;;;13.70;;
1404;SDS011;697;51.114;6.542;2023-05-13T07:18:03;15.50;;;13.97;;
1404;SDS011;697;51.114;6.542;2023-05-13T07:20:30;15.00;;;13.57;;
1404;SDS011;697;51.114;6.542;2023-05-13T07:22:58;14.60;;;13.33;;
1404;SDS011;697;51.114;6.542;2023-05-13T07:25:24;13.10;;;11.83;;
1404;SDS011;697;51.114;6.542;2023-05-13T07:27:51;14.43;;;12.87;;
1404;SDS011;697;51.114;6.542;2023-05-13T07:30:18;15.00;;;13.60;;
1404;SDS011;697;51.114;6.542;2023-05-13T07:32:45;13.40;;;11.77;;
1404;SDS011;697;51.114;6.542;2023-05-13T07:35:11;12.63;;;11.33;;
1404;SDS011;697;51.114;6.542;2023-05-13T07:37:38;13.23;;;12.10;;
1404;SDS011;697;51.114;6.542;2023-05-13T07:40:07;13.40;;;12.10;;
1404;SDS011;697;51.114;6.542;2023-05-13T07:42:35;13.70;;;12.50;;
1404;SDS011;697;51.114;6.542;2023-05-13T07:45:02;12.30;;;11.20;;
1404;SDS011;697;51.114;6.542;2023-05-13T07:47:29;13.97;;;12.70;;
1404;SDS011;697;51.114;6.542;2023-05-13T07:49:57;14.17;;;12.73;;
1404;SDS011;697;51.114;6.542;2023-05-13T07:52:24;12.87;;;11.77;;
1404;SDS011;697;51.114;6.542;2023-05-13T07:54:51;15.10;;;13.73;;
1404;SDS011;697;51.114;6.542;2023-05-13T07:57:21;15.70;;;13.33;;
1404;SDS011;697;51.114;6.542;2023-05-13T07:59:47;12.97;;;11.90;;
1404;SDS011;697;51.114;6.542;2023-05-13T08:02:14;11.33;;;10.43;;
1404;SDS011;697;51.114;6.542;2023-05-13T08:04:41;13.27;;;12.10;;
1404;SDS011;697;51.114;6.542;2023-05-13T08:07:08;13.30;;;12.10;;
1404;SDS011;697;51.114;6.542;2023-05-13T08:09:35;12.70;;;11.20;;
1404;SDS011;697;51.114;6.542;2023-05-13T08:12:02;14.43;;;11.67;;
1404;SDS011;697;51.114;6.542;2023-05-13T08:14:30;12.33;;;11.17;;
1404;SDS011;697;51.114;6.542;2023-05-13T08:16:57;11.73;;;10.47;;
1404;SDS011;697;51.114;6.542;2023-05-13T08:19:23;10.13;;;9.20;;
1404;SDS011;697;51.114;6.542;2023-05-13T08:21:50;11.57;;;10.47;;
1404;SDS011;697;51.114;6.542;2023-05-13T08:24:17;11.33;;;10.20;;
1404;SDS011;697;51.114;6.542;2023-05-13T08:26:43;10.13;;;9.23;;
1404;SDS011;697;51.114;6.542;2023-05-13T08:29:11;11.00;;;9.90;;
1404;SDS011;697;51.114;6.542;2023-05-13T08:31:40;10.87;;;9.97;;
1404;SDS011;697;51.114;6.542;2023-05-13T08:34:07;10.90;;;9.60;;
1404;SDS011;697;51.114;6.542;2023-05-13T08:36:34;9.77;;;8.87;;
1404;SDS011;697;51.114;6.542;2023-05-13T08:39:01;11.80;;;9.20;;
1404;SDS011;697;51.114;6.542;2023-05-13T08:41:28;11.70;;;10.47;;
1404;SDS011;697;51.114;6.542;2023-05-13T08:43:55;10.93;;;10.03;;
1404;SDS011;697;51.114;6.542;2023-05-13T08:46:23;13.90;;;12.50;;
1404;SDS011;697;51.114;6.542;2023-05-13T08:48:54;10.10;;;9.10;;
1404;SDS011;697;51.114;6.542;2023-05-13T08:51:21;10.67;;;9.67;;
1404;SDS011;697;51.114;6.542;2023-05-13T08:53:48;11.87;;;10.60;;
1404;SDS011;697;51.114;6.542;2023-05-13T08:56:17;12.67;;;11.40;;
1404;SDS011;697;51.114;6.542;2023-05-13T08:58:46;11.33;;;10.10;;
1404;SDS011;697;51.114;6.542;2023-05-13T09:01:12;8.63;;;8.00;;
1404;SDS011;697;51.114;6.542;2023-05-13T09:03:43;10.03;;;9.13;;
1404;SDS011;697;51.114;6.542;2023-05-13T09:06:18;11.57;;;10.37;;
1404;SDS011;697;51.114;6.542;2023-05-13T09:08:46;9.93;;;9.00;;
1404;SDS011;697;51.114;6.542;2023-05-13T09:11:12;9.67;;;8.87;;
1404;SDS011;697;51.114;6.542;2023-05-13T09:13:41;10.00;;;9.00;;
1404;SDS011;697;51.114;6.542;2023-05-13T09:16:08;9.13;;;8.23;;
1404;SDS011;697;51.114;6.542;2023-05-13T09:18:36;10.23;;;9.23;;
1404;SDS011;697;51.114;6.542;2023-05-13T09:23:54;8.77;;;7.97;;
1404;SDS011;697;51.114;6.542;2023-05-13T09:26:27;8.90;;;8.10;;
1404;SDS011;697;51.114;6.542;2023-05-13T09:29:14;8.00;;;7.27;;
1404;SDS011;697;51.114;6.542;2023-05-13T09:31:42;9.20;;;7.00;;
1404;SDS011;697;51.114;6.542;2023-05-13T09:34:08;10.00;;;8.10;;
1404;SDS011;697;51.114;6.542;2023-05-13T09:36:36;9.80;;;8.03;;
1404;SDS011;697;51.114;6.542;2023-05-13T09:39:03;8.60;;;7.87;;
1404;SDS011;697;51.114;6.542;2023-05-13T09:41:30;8.20;;;6.73;;
1404;SDS011;697;51.114;6.542;2023-05-13T09:43:57;8.23;;;7.27;;
1404;SDS011;697;51.114;6.542;2023-05-13T09:46:26;8.10;;;7.40;;
1404;SDS011;697;51.114;6.542;2023-05-13T09:48:53;8.20;;;7.50;;
1404;SDS011;697;51.114;6.542;2023-05-13T09:51:24;10.13;;;9.37;;
1404;SDS011;697;51.114;6.542;2023-05-13T09:53:53;8.63;;;7.80;;
1404;SDS011;697;51.114;6.542;2023-05-13T09:56:21;8.53;;;7.83;;
1404;SDS011;697;51.114;6.542;2023-05-13T09:58:51;9.30;;;7.20;;
1404;SDS011;697;51.114;6.542;2023-05-13T10:01:18;8.03;;;7.33;;
1404;SDS011;697;51.114;6.542;2023-05-13T10:03:45;11.33;;;6.90;;
1404;SDS011;697;51.114;6.542;2023-05-13T10:06:12;13.30;;;8.27;;
1404;SDS011;697;51.114;6.542;2023-05-13T10:08:41;9.70;;;6.77;;
1404;SDS011;697;51.114;6.542;2023-05-13T10:11:12;8.27;;;7.50;;
1404;SDS011;697;51.114;6.542;2023-05-13T10:13:39;11.37;;;8.00;;
1404;SDS011;697;51.114;6.542;2023-05-13T10:16:07;13.32;;;8.50;;
1404;SDS011;697;51.114;6.542;2023-05-13T10:18:34;9.60;;;6.53;;
1404;SDS011;697;51.114;6.542;2023-05-13T10:21:01;12.10;;;6.90;;
1404;SDS011;697;51.114;6.542;2023-05-13T10:23:29;10.23;;;6.07;;
1404;SDS011;697;51.114;6.542;2023-05-13T10:25:59;11.50;;;6.63;;
1404;SDS011;697;51.114;6.542;2023-05-13T10:28:27;8.73;;;6.30;;
1404;SDS011;697;51.114;6.542;2023-05-13T10:30:54;7.33;;;5.37;;
1404;SDS011;697;51.114;6.542;2023-05-13T10:33:22;9.53;;;5.73;;
1404;SDS011;697;51.114;6.542;2023-05-13T10:35:51;7.33;;;5.80;;
1404;SDS011;697;51.114;6.542;2023-05-13T10:38:28;5.80;;;5.00;;
1404;SDS011;697;51.114;6.542;2023-05-13T10:41:10;7.20;;;5.80;;
1404;SDS011;697;51.114;6.542;2023-05-13T10:43:55;7.10;;;6.20;;
1404;SDS011;697;51.114;6.542;2023-05-13T10:46:23;9.33;;;5.77;;
1404;SDS011;697;51.114;6.542;2023-05-13T10:48:54;7.57;;;6.17;;
1404;SDS011;697;51.114;6.542;2023-05-13T10:51:23;9.77;;;5.27;;
1404;SDS011;697;51.114;6.542;2023-05-13T10:53:52;5.27;;;4.80;;
1404;SDS011;697;51.114;6.542;2023-05-13T10:56:19;9.03;;;4.17;;
1404;SDS011;697;51.114;6.542;2023-05-13T10:58:57;8.27;;;4.90;;
1404;SDS011;697;51.114;6.542;2023-05-13T11:01:26;6.10;;;4.47;;
1404;SDS011;697;51.114;6.542;2023-05-13T11:03:54;5.53;;;5.03;;
1404;SDS011;697;51.114;6.542;2023-05-13T11:06:23;9.05;;;5.22;;
1404;SDS011;697;51.114;6.542;2023-05-13T11:08:55;6.85;;;4.40;;
1404;SDS011;697;51.114;6.542;2023-05-13T11:11:23;4.55;;;3.72;;
1404;SDS011;697;51.114;6.542;2023-05-13T11:13:52;5.30;;;4.30;;
1404;SDS011;697;51.114;6.542;2023-05-13T11:16:21;6.65;;;4.20;;
1404;SDS011;697;51.114;6.542;2023-05-13T11:18:49;5.03;;;4.28;;
1404;SDS011;697;51.114;6.542;2023-05-13T11:21:17;4.60;;;4.25;;
1404;SDS011;697;51.114;6.542;2023-05-13T11:23:55;6.13;;;4.45;;
1404;SDS011;697;51.114;6.542;2023-05-13T11:26:23;4.70;;;4.35;;
1404;SDS011;697;51.114;6.542;2023-05-13T11:28:53;7.20;;;4.28;;
1404;SDS011;697;51.114;6.542;2023-05-13T11:31:23;8.35;;;4.50;;
1404;SDS011;697;51.114;6.542;2023-05-13T11:34:07;9.85;;;5.03;;
1404;SDS011;697;51.114;6.542;2023-05-13T11:36:35;8.27;;;4.07;;
1404;SDS011;697;51.114;6.542;2023-05-13T11:39:06;4.70;;;4.28;;
1404;SDS011;697;51.114;6.542;2023-05-13T11:41:35;4.07;;;3.60;;
1404;SDS011;697;51.114;6.542;2023-05-13T11:44:03;4.15;;;3.75;;
1404;SDS011;697;51.114;6.542;2023-05-13T11:46:32;4.78;;;4.00;;
1404;SDS011;697;51.114;6.542;2023-05-13T11:48:58;4.13;;;3.50;;
1404;SDS011;697;51.114;6.542;2023-05-13T11:51:25;5.40;;;4.88;;
1404;SDS011;697;51.114;6.542;2023-05-13T11:53:58;6.45;;;4.10;;
1404;SDS011;697;51.114;6.542;2023-05-13T11:56:25;4.22;;;3.83;;
1404;SDS011;697;51.114;6.542;2023-05-13T11:58:53;4.07;;;3.67;;
1404;SDS011;697;51.114;6.542;2023-05-13T12:01:19;4.45;;;4.05;;
1404;SDS011;697;51.114;6.542;2023-05-13T12:03:47;8.38;;;4.00;;
1404;SDS011;697;51.114;6.542;2023-05-13T12:06:14;5.80;;;3.72;;
1404;SDS011;697;51.114;6.542;2023-05-13T12:08:44;3.60;;;3.30;;
1404;SDS011;697;51.114;6.542;2023-05-13T12:11:11;4.45;;;3.20;;
1404;SDS011;697;51.114;6.542;2023-05-13T12:13:38;7.28;;;3.53;;
1404;SDS011;697;51.114;6.542;2023-05-13T12:16:06;4.28;;;3.72;;
1404;SDS011;697;51.114;6.542;2023-05-13T12:18:35;5.10;;;4.40;;
1404;SDS011;697;51.114;6.542;2023-05-13T12:21:13;4.13;;;3.70;;
1404;SDS011;697;51.114;6.542;2023-05-13T12:23:41;5.20;;;4.70;;
1404;SDS011;697;51.114;6.542;2023-05-13T12:26:07;4.82;;;4.43;;
1404;SDS011;697;51.114;6.542;2023-05-13T12:28:36;5.38;;;4.85;;
1404;SDS011;697;51.114;6.542;2023-05-13T12:31:03;5.03;;;4.25;;
1404;SDS011;697;51.114;6.542;2023-05-13T12:33:30;7.40;;;4.35;;
1404;SDS011;697;51.114;6.542;2023-05-13T12:36:15;4.50;;;4.07;;
1404;SDS011;697;51.114;6.542;2023-05-13T12:38:53;6.53;;;4.03;;
1404;SDS011;697;51.114;6.542;2023-05-13T12:41:21;6.50;;;3.92;;
1404;SDS011;697;51.114;6.542;2023-05-13T12:43:49;4.82;;;3.60;;
1404;SDS011;697;51.114;6.542;2023-05-13T12:46:17;4.47;;;2.90;;
1404;SDS011;697;51.114;6.542;2023-05-13T12:48:44;8.00;;;3.33;;
1404;SDS011;697;51.114;6.542;2023-05-13T12:51:11;3.05;;;2.80;;
1404;SDS011;697;51.114;6.542;2023-05-13T12:53:41;3.30;;;3.00;;
1404;SDS011;697;51.114;6.542;2023-05-13T12:56:07;5.88;;;3.05;;
1404;SDS011;697;51.114;6.542;2023-05-13T12:58:34;3.03;;;2.83;;
1404;SDS011;697;51.114;6.542;2023-05-13T13:01:01;3.70;;;3.40;;
1404;SDS011;697;51.114;6.542;2023-05-13T13:03:28;3.55;;;3.13;;
1404;SDS011;697;51.114;6.542;2023-05-13T13:05:55;3.08;;;2.83;;
1404;SDS011;697;51.114;6.542;2023-05-13T13:08:22;6.35;;;3.20;;
1404;SDS011;697;51.114;6.542;2023-05-13T13:10:50;3.63;;;2.70;;
1404;SDS011;697;51.114;6.542;2023-05-13T13:13:17;5.32;;;3.03;;
1404;SDS011;697;51.114;6.542;2023-05-13T13:15:44;3.78;;;3.15;;
1404;SDS011;697;51.114;6.542;2023-05-13T13:18:11;5.20;;;2.92;;
1404;SDS011;697;51.114;6.542;2023-05-13T13:20:37;6.47;;;3.33;;
1404;SDS011;697;51.114;6.542;2023-05-13T13:23:04;4.35;;;3.20;;
1404;SDS011;697;51.114;6.542;2023-05-13T13:25:31;3.43;;;2.83;;
1404;SDS011;697;51.114;6.542;2023-05-13T13:27:59;3.90;;;3.47;;
1404;SDS011;697;51.114;6.542;2023-05-13T13:30:26;3.80;;;3.40;;
1404;SDS011;697;51.114;6.542;2023-05-13T13:32:53;3.87;;;3.57;;
1404;SDS011;697;51.114;6.542;2023-05-13T13:35:19;6.33;;;4.33;;
1404;SDS011;697;51.114;6.542;2023-05-13T13:37:46;6.20;;;3.70;;
1404;SDS011;697;51.114;6.542;2023-05-13T13:40:13;5.37;;;3.40;;
1404;SDS011;697;51.114;6.542;2023-05-13T13:42:39;3.70;;;3.40;;
1404;SDS011;697;51.114;6.542;2023-05-13T13:45:08;3.60;;;3.30;;
1404;SDS011;697;51.114;6.542;2023-05-13T13:47:36;5.07;;;3.50;;
1404;SDS011;697;51.114;6.542;2023-05-13T13:50:03;4.50;;;3.40;;
1404;SDS011;697;51.114;6.542;2023-05-13T13:52:30;3.45;;;3.15;;
1404;SDS011;697;51.114;6.542;2023-05-13T13:54:57;3.40;;;3.10;;
1404;SDS011;697;51.114;6.542;2023-05-13T13:57:24;3.38;;;2.60;;
1404;SDS011;697;51.114;6.542;2023-05-13T13:59:51;3.63;;;2.83;;
1404;SDS011;697;51.114;6.542;2023-05-13T14:02:19;3.28;;;2.85;;
1404;SDS011;697;51.114;6.542;2023-05-13T14:04:45;3.33;;;2.97;;
1404;SDS011;697;51.114;6.542;2023-05-13T14:07:12;3.17;;;2.65;;
1404;SDS011;697;51.114;6.542;2023-05-13T14:09:39;2.60;;;2.40;;
1404;SDS011;697;51.114;6.542;2023-05-13T14:12:06;2.75;;;2.55;;
1404;SDS011;697;51.114;6.542;2023-05-13T14:14:33;2.70;;;2.50;;
1404;SDS011;697;51.114;6.542;2023-05-13T14:16:59;4.95;;;3.10;;
1404;SDS011;697;51.114;6.542;2023-05-13T14:19:27;6.00;;;2.95;;
1404;SDS011;697;51.114;6.542;2023-05-13T14:21:54;4.25;;;3.38;;
1404;SDS011;697;51.114;6.542;2023-05-13T14:24:21;3.38;;;3.08;;
1404;SDS011;697;51.114;6.542;2023-05-13T14:26:48;3.47;;;3.13;;
1404;SDS011;697;51.114;6.542;2023-05-13T14:29:14;4.97;;;4.13;;
1404;SDS011;697;51.114;6.542;2023-05-13T14:31:41;6.20;;;3.20;;
1404;SDS011;697;51.114;6.542;2023-05-13T14:34:08;5.80;;;3.50;;
1404;SDS011;697;51.114;6.542;2023-05-13T14:36:36;4.30;;;3.90;;
1404;SDS011;697;51.114;6.542;2023-05-13T14:39:03;3.67;;;3.33;;
1404;SDS011;697;51.114;6.542;2023-05-13T14:41:29;3.70;;;3.40;;
1404;SDS011;697;51.114;6.542;2023-05-13T14:43:56;6.17;;;3.70;;
1404;SDS011;697;51.114;6.542;2023-05-13T14:46:24;3.80;;;3.27;;
1404;SDS011;697;51.114;6.542;2023-05-13T14:48:50;9.97;;;4.10;;
1404;SDS011;697;51.114;6.542;2023-05-13T14:51:17;4.93;;;3.47;;
1404;SDS011;697;51.114;6.542;2023-05-13T14:53:45;9.30;;;4.60;;
1404;SDS011;697;51.114;6.542;2023-05-13T14:56:12;4.67;;;3.17;;
1404;SDS011;697;51.114;6.542;2023-05-13T14:58:38;3.47;;;2.90;;
1404;SDS011;697;51.114;6.542;2023-05-13T15:01:06;4.90;;;3.27;;
1404;SDS011;697;51.114;6.542;2023-05-13T15:03:32;5.30;;;3.27;;
1404;SDS011;697;51.114;6.542;2023-05-13T15:05:59;16.07;;;3.83;;
1404;SDS011;697;51.114;6.542;2023-05-13T15:08:26;4.57;;;3.30;;
1404;SDS011;697;51.114;6.542;2023-05-13T15:10:54;2.87;;;2.67;;
1404;SDS011;697;51.114;6.542;2023-05-13T15:13:20;4.70;;;3.07;;
1404;SDS011;697;51.114;6.542;2023-05-13T15:15:48;4.10;;;2.77;;
1404;SDS011;697;51.114;6.542;2023-05-13T15:18:15;3.13;;;2.80;;